Time;durP1;ratioP1;P1;durP2;ratioP2;P2;SDS_P1;SDS_P2;PMS_P1;PMS_P2;Temp;Humidity;BMP_temperature;BMP_pressure;BME280_temperature;BME280_humidity;BME280_pressure;Samples;Min_cycle;Max_cycle;Signal;HPM_P1;HPM_P2
2022/09/03 00:02:49;;;;;;;1.70;1.60;;;17.00;95.50;;;;;;5045642;28;20211;-74
2022/09/03 00:05:18;;;;;;;1.55;1.50;;;17.10;95.10;;;;;;5077480;28;20187;-73
2022/09/03 00:08:19;;;;;;;1.83;1.73;;;17.10;95.10;;;;;;5052481;28;20187;-75
2022/09/03 00:11:13;;;;;;;1.17;1.17;;;17.00;95.50;;;;;;5004483;28;20195;-75
2022/09/03 00:13:47;;;;;;;1.98;1.50;;;16.90;95.80;;;;;;5003910;28;20255;-75
2022/09/03 00:16:20;;;;;;;1.77;1.67;;;17.00;95.40;;;;;;5006568;28;20195;-75
2022/09/03 00:18:55;;;;;;;1.40;1.40;;;16.90;95.50;;;;;;5007123;28;20189;-75
2022/09/03 00:21:31;;;;;;;2.00;1.90;;;16.90;95.50;;;;;;5008513;28;20676;-75
2022/09/03 00:24:00;;;;;;;1.95;1.85;;;16.90;95.60;;;;;;5005803;28;20188;-75
2022/09/03 00:26:30;;;;;;;1.70;1.70;;;17.00;94.90;;;;;;5006920;28;20247;-75
2022/09/03 00:29:06;;;;;;;1.85;1.85;;;16.90;95.50;;;;;;5008077;28;20639;-75
2022/09/03 00:31:43;;;;;;;2.10;1.83;;;16.90;95.20;;;;;;5010848;28;20698;-75
2022/09/03 00:34:22;;;;;;;1.60;1.58;;;17.00;94.90;;;;;;5008959;28;20220;-76
2022/09/03 00:36:48;;;;;;;2.15;2.05;;;17.00;94.70;;;;;;5009378;28;20183;-75
2022/09/03 00:39:20;;;;;;;1.70;1.70;;;17.10;94.20;;;;;;5005913;28;20674;-74
2022/09/03 00:42:10;;;;;;;1.60;1.60;;;17.10;94.40;;;;;;5005618;28;20220;-75
2022/09/03 00:44:48;;;;;;;1.30;1.30;;;17.00;94.10;;;;;;5004096;28;20196;-75
2022/09/03 00:47:20;;;;;;;1.70;1.60;;;17.20;93.90;;;;;;5018085;28;20199;-74
2022/09/03 00:50:05;;;;;;;2.30;2.10;;;17.20;93.50;;;;;;5043530;28;20266;-74
2022/09/03 00:52:51;;;;;;;1.52;1.42;;;17.10;94.30;;;;;;5052433;28;20179;-75
2022/09/03 00:55:37;;;;;;;1.50;1.50;;;17.00;94.90;;;;;;5047017;28;20828;-75
2022/09/03 00:58:24;;;;;;;1.92;1.83;;;17.00;94.70;;;;;;5046374;28;20184;-75
2022/09/03 01:00:51;;;;;;;2.00;1.90;;;16.90;94.70;;;;;;5046340;28;20282;-74
2022/09/03 01:03:39;;;;;;;1.95;1.85;;;16.90;95.10;;;;;;5051545;28;20695;-75
2022/09/03 01:06:10;;;;;;;1.90;1.80;;;16.90;94.50;;;;;;5046594;28;20179;-75
2022/09/03 01:08:49;;;;;;;1.85;1.80;;;17.00;94.40;;;;;;5048559;28;20944;-74
2022/09/03 01:11:27;;;;;;;2.40;2.20;;;17.00;94.20;;;;;;5048838;28;21248;-75
2022/09/03 01:14:20;;;;;;;1.70;1.70;;;17.00;94.00;;;;;;5048392;28;20179;-75
2022/09/03 01:17:06;;;;;;;2.30;2.13;;;17.00;94.30;;;;;;5048043;28;20750;-74
2022/09/03 01:19:57;;;;;;;1.30;1.30;;;16.90;94.00;;;;;;5050798;28;20678;-74
2022/09/03 01:22:52;;;;;;;1.60;1.60;;;16.90;94.40;;;;;;5047323;28;20215;-74
2022/09/03 01:25:50;;;;;;;2.17;2.08;;;16.80;95.10;;;;;;5019526;28;20192;-74
2022/09/03 01:29:00;;;;;;;1.80;1.73;;;16.90;94.40;;;;;;5021287;28;20199;-74
2022/09/03 01:31:52;;;;;;;1.70;1.70;;;16.80;94.70;;;;;;5018770;28;20184;-74
2022/09/03 01:34:37;;;;;;;1.33;1.33;;;16.80;94.90;;;;;;5018962;28;20197;-74
2022/09/03 01:37:32;;;;;;;1.70;1.70;;;16.70;95.10;;;;;;5018165;28;20196;-74
2022/09/03 01:40:25;;;;;;;1.50;1.50;;;16.70;94.50;;;;;;5019185;28;20219;-75
2022/09/03 01:43:05;;;;;;;1.58;1.58;;;16.70;95.40;;;;;;5020024;28;20220;-74
2022/09/03 01:45:43;;;;;;;1.45;1.35;;;16.60;95.20;;;;;;5017266;28;22098;-74
2022/09/03 01:48:15;;;;;;;1.85;1.75;;;16.60;95.90;;;;;;5005048;28;20280;-74
2022/09/03 01:50:58;;;;;;;1.73;1.70;;;16.50;96.30;;;;;;5023884;28;20759;-74
2022/09/03 01:53:43;;;;;;;1.45;1.45;;;16.50;96.40;;;;;;5006345;28;20200;-74
2022/09/03 01:56:37;;;;;;;1.83;1.73;;;16.50;96.30;;;;;;5023970;28;20192;-75
2022/09/03 01:59:10;;;;;;;1.83;1.73;;;16.50;96.30;;;;;;5023365;28;20266;-74
2022/09/03 02:01:44;;;;;;;1.40;1.40;;;16.50;96.40;;;;;;5033612;28;20287;-75
2022/09/03 02:04:24;;;;;;;1.65;1.65;;;16.50;96.30;;;;;;5053314;28;20670;-74
2022/09/03 02:06:51;;;;;;;2.13;2.03;;;16.60;95.10;;;;;;5051116;28;20191;-75
2022/09/03 02:09:18;;;;;;;1.60;1.60;;;16.70;95.40;;;;;;5048530;28;20179;-74
2022/09/03 02:11:48;;;;;;;1.67;1.67;;;16.70;95.00;;;;;;5050954;28;20180;-74
2022/09/03 02:14:14;;;;;;;2.10;2.00;;;16.70;95.10;;;;;;5054094;28;20179;-74
2022/09/03 02:16:40;;;;;;;1.88;1.77;;;16.70;95.20;;;;;;5050672;28;20687;-75
2022/09/03 02:19:12;;;;;;;1.45;1.45;;;16.70;94.90;;;;;;5052194;28;20176;-75
2022/09/03 02:21:51;;;;;;;1.52;1.42;;;16.60;95.20;;;;;;5054588;28;20238;-74
2022/09/03 02:24:17;;;;;;;2.03;1.95;;;16.60;95.20;;;;;;5050959;28;20699;-75
2022/09/03 02:26:43;;;;;;;1.85;1.75;;;16.60;95.30;;;;;;5048883;28;20270;-74
2022/09/03 02:29:10;;;;;;;2.08;1.98;;;16.60;95.20;;;;;;5053049;28;20176;-74
2022/09/03 02:31:36;;;;;;;2.55;2.45;;;16.60;95.10;;;;;;5047244;28;20225;-74
2022/09/03 02:34:01;;;;;;;1.83;1.83;;;16.60;94.60;;;;;;5054774;28;20219;-74
2022/09/03 02:36:31;;;;;;;1.95;1.88;;;16.60;94.60;;;;;;5059339;28;20244;-74
2022/09/03 02:38:57;;;;;;;1.90;1.90;;;16.70;94.50;;;;;;5050207;28;20618;-75
2022/09/03 02:41:26;;;;;;;2.10;2.00;;;16.80;94.30;;;;;;5049371;28;20203;-75
2022/09/03 02:44:09;;;;;;;1.90;1.80;;;16.80;94.50;;;;;;5048998;28;20195;-74
2022/09/03 02:46:39;;;;;;;1.95;1.88;;;16.60;94.60;;;;;;5052015;28;20575;-74
2022/09/03 02:49:05;;;;;;;2.45;2.35;;;16.70;94.10;;;;;;5049400;28;20233;-74
2022/09/03 02:51:34;;;;;;;2.13;2.03;;;16.80;94.20;;;;;;5048754;28;20187;-74
2022/09/03 02:53:59;;;;;;;2.80;1.95;;;16.70;94.50;;;;;;5050744;28;20688;-74
2022/09/03 02:56:26;;;;;;;1.98;1.80;;;16.50;94.90;;;;;;5050059;28;20183;-74
2022/09/03 02:58:53;;;;;;;1.98;1.90;;;16.60;94.70;;;;;;5049880;28;20587;-75
2022/09/03 03:01:18;;;;;;;2.08;1.95;;;16.60;94.60;;;;;;5050774;28;20187;-75
2022/09/03 03:03:44;;;;;;;2.17;2.08;;;16.70;94.10;;;;;;5053866;28;20183;-74
2022/09/03 03:06:12;;;;;;;2.15;2.05;;;16.70;94.20;;;;;;5050091;28;20870;-74
2022/09/03 03:08:38;;;;;;;1.85;1.75;;;16.80;93.70;;;;;;5067358;28;20307;-74
2022/09/03 03:11:05;;;;;;;1.73;1.73;;;16.80;93.70;;;;;;5054035;28;20175;-75
2022/09/03 03:13:32;;;;;;;1.90;1.90;;;16.80;93.70;;;;;;5049693;28;20214;-74
2022/09/03 03:16:05;;;;;;;2.30;2.20;;;16.90;93.40;;;;;;5054529;28;20175;-74
2022/09/03 03:18:31;;;;;;;2.15;2.00;;;16.90;93.30;;;;;;5047688;28;20219;-75
2022/09/03 03:20:56;;;;;;;2.53;2.30;;;16.90;93.10;;;;;;5046308;28;20187;-75
2022/09/03 03:23:22;;;;;;;2.15;2.03;;;16.90;93.00;;;;;;5054884;28;20219;-75
2022/09/03 03:25:48;;;;;;;1.90;1.90;;;16.90;93.10;;;;;;5055687;28;20197;-74
2022/09/03 03:28:14;;;;;;;2.08;1.98;;;16.90;93.20;;;;;;5051887;28;20186;-74
2022/09/03 03:30:41;;;;;;;1.88;1.88;;;16.90;93.30;;;;;;5051269;28;20226;-75
2022/09/03 03:33:10;;;;;;;2.30;2.20;;;16.80;93.30;;;;;;5050782;28;20183;-75
2022/09/03 03:35:36;;;;;;;1.92;1.83;;;16.80;93.40;;;;;;5051516;28;20190;-75
2022/09/03 03:38:02;;;;;;;2.20;2.10;;;16.90;93.10;;;;;;5054027;28;20179;-75
2022/09/03 03:40:27;;;;;;;1.92;1.83;;;16.80;93.20;;;;;;5056511;28;20932;-75
2022/09/03 03:42:53;;;;;;;1.80;1.70;;;16.90;93.10;;;;;;5045900;28;20269;-75
2022/09/03 03:45:20;;;;;;;2.05;1.98;;;16.80;93.50;;;;;;5081789;28;20202;-75
2022/09/03 03:47:45;;;;;;;1.65;1.60;;;16.80;93.50;;;;;;5056580;28;20545;-74
2022/09/03 03:50:11;;;;;;;1.77;1.67;;;16.80;93.70;;;;;;5047109;28;20281;-75
2022/09/03 03:52:37;;;;;;;2.30;1.70;;;16.80;93.50;;;;;;5053835;28;20184;-75
2022/09/03 03:55:03;;;;;;;2.72;2.08;;;16.80;93.20;;;;;;5046671;28;20194;-74
2022/09/03 03:57:31;;;;;;;1.83;1.83;;;16.90;93.50;;;;;;5053871;28;20633;-75
2022/09/03 03:59:56;;;;;;;2.30;2.20;;;16.80;93.80;;;;;;5047867;28;20243;-74
2022/09/03 04:02:22;;;;;;;2.83;2.63;;;16.80;93.50;;;;;;5049707;28;20219;-74
2022/09/03 04:04:48;;;;;;;2.55;2.05;;;16.80;93.40;;;;;;5051044;28;20198;-75
2022/09/03 04:07:13;;;;;;;2.28;2.10;;;16.80;93.00;;;;;;5044793;28;20198;-75
2022/09/03 04:09:39;;;;;;;2.17;2.08;;;16.80;93.20;;;;;;5053088;28;20183;-74
2022/09/03 04:12:07;;;;;;;2.08;1.98;;;16.90;93.00;;;;;;5049790;28;20188;-75
2022/09/03 04:14:34;;;;;;;1.75;1.75;;;16.80;93.00;;;;;;5047270;28;20226;-75
2022/09/03 04:17:01;;;;;;;2.33;2.20;;;16.80;93.40;;;;;;5049319;28;20182;-74
2022/09/03 04:19:28;;;;;;;2.08;2.03;;;16.80;93.30;;;;;;5052489;28;20218;-75
2022/09/03 04:21:54;;;;;;;1.95;1.90;;;16.90;93.20;;;;;;5048126;28;20322;-75
2022/09/03 04:24:20;;;;;;;2.53;2.33;;;16.80;93.50;;;;;;5049083;28;20709;-75
2022/09/03 04:26:46;;;;;;;2.50;2.30;;;16.80;93.10;;;;;;5047033;28;20186;-75
2022/09/03 04:29:12;;;;;;;2.60;2.40;;;16.90;93.20;;;;;;5047792;28;20180;-75
2022/09/03 04:31:38;;;;;;;2.70;2.50;;;16.90;93.60;;;;;;5050888;28;20267;-74
2022/09/03 04:34:08;;;;;;;2.55;2.45;;;16.80;93.40;;;;;;5053194;28;20180;-74
2022/09/03 04:36:33;;;;;;;3.13;2.95;;;16.80;93.50;;;;;;5061081;28;20288;-74
2022/09/03 04:39:00;;;;;;;2.95;2.75;;;16.80;93.70;;;;;;5050205;28;20183;-75
2022/09/03 04:41:28;;;;;;;2.30;2.20;;;16.80;93.50;;;;;;5052192;28;20222;-73
2022/09/03 04:43:56;;;;;;;1.80;1.77;;;16.80;93.40;;;;;;5044831;28;20266;-75
2022/09/03 04:46:24;;;;;;;1.77;1.67;;;16.70;94.30;;;;;;5052474;28;20214;-75
2022/09/03 04:48:53;;;;;;;2.08;1.98;;;16.80;94.10;;;;;;5049247;28;20815;-75
2022/09/03 04:51:26;;;;;;;2.10;2.00;;;16.80;93.80;;;;;;5052131;28;20179;-74
2022/09/03 04:53:56;;;;;;;2.42;2.33;;;16.90;94.00;;;;;;5051742;28;20210;-75
2022/09/03 04:56:31;;;;;;;2.13;2.03;;;16.80;94.10;;;;;;5048985;28;20300;-74
2022/09/03 04:59:05;;;;;;;2.10;2.00;;;16.70;94.60;;;;;;5047957;28;20293;-74
2022/09/03 05:01:33;;;;;;;2.17;2.08;;;16.60;94.70;;;;;;5043917;28;20183;-75
2022/09/03 05:04:00;;;;;;;2.22;2.13;;;16.60;94.80;;;;;;5052102;28;20649;-75
2022/09/03 05:06:26;;;;;;;1.83;1.83;;;16.60;95.00;;;;;;5043986;28;20194;-75
2022/09/03 05:08:54;;;;;;;2.28;2.28;;;16.50;95.10;;;;;;5051576;28;20191;-75
2022/09/03 05:11:20;;;;;;;1.90;1.90;;;16.60;94.60;;;;;;5050070;28;20676;-74
2022/09/03 05:13:50;;;;;;;1.92;1.83;;;16.60;94.40;;;;;;5049222;28;20176;-75
2022/09/03 05:16:17;;;;;;;2.10;2.10;;;16.70;94.00;;;;;;5048561;28;20262;-74
2022/09/03 05:18:43;;;;;;;1.83;1.83;;;16.80;94.00;;;;;;5045845;28;20206;-74
2022/09/03 05:21:12;;;;;;;1.83;1.83;;;16.90;93.90;;;;;;5050587;28;20176;-75
2022/09/03 05:23:40;;;;;;;1.83;1.73;;;16.90;93.80;;;;;;5054966;28;20285;-73
2022/09/03 05:26:09;;;;;;;1.83;1.80;;;16.90;93.50;;;;;;5051112;28;20179;-74
2022/09/03 05:28:37;;;;;;;2.85;2.05;;;17.00;93.30;;;;;;5053895;28;20189;-75
2022/09/03 05:31:09;;;;;;;1.98;1.88;;;17.10;93.10;;;;;;5055389;28;20206;-74
2022/09/03 05:33:40;;;;;;;1.65;1.55;;;17.00;93.70;;;;;;5056119;28;20198;-74
2022/09/03 05:36:09;;;;;;;1.60;1.60;;;17.10;93.20;;;;;;5049363;28;20204;-74
2022/09/03 05:38:35;;;;;;;1.98;1.88;;;17.10;93.50;;;;;;5052723;28;20198;-73
2022/09/03 05:41:02;;;;;;;2.28;2.17;;;17.10;93.30;;;;;;5051648;28;20199;-76
2022/09/03 05:43:29;;;;;;;2.33;2.20;;;17.10;93.30;;;;;;5052462;28;20223;-73
2022/09/03 05:46:10;;;;;;;1.92;1.83;;;17.10;93.70;;;;;;5050568;28;20187;-73
2022/09/03 05:48:37;;;;;;;2.00;1.90;;;17.10;93.40;;;;;;5052235;28;20579;-75
2022/09/03 05:51:08;;;;;;;2.00;1.90;;;17.10;93.40;;;;;;5053176;28;20222;-72
2022/09/03 05:53:37;;;;;;;2.35;2.25;;;17.10;93.40;;;;;;5051656;28;20265;-74
2022/09/03 05:56:06;;;;;;;1.90;1.80;;;17.00;93.30;;;;;;5051888;28;20310;-75
2022/09/03 05:58:34;;;;;;;1.70;1.70;;;17.10;92.80;;;;;;5042251;28;20180;-76
2022/09/03 06:01:08;;;;;;;1.70;1.70;;;17.10;92.80;;;;;;5049601;28;20345;-76
2022/09/03 06:03:34;;;;;;;2.17;2.08;;;17.20;92.70;;;;;;5048927;28;20221;-77
2022/09/03 06:05:59;;;;;;;2.15;2.05;;;17.30;92.40;;;;;;5054462;28;20180;-77
2022/09/03 06:08:25;;;;;;;1.70;1.70;;;17.30;92.40;;;;;;5049638;28;20197;-78
2022/09/03 06:10:58;;;;;;;1.92;1.83;;;17.30;92.20;;;;;;5052174;28;20211;-77
2022/09/03 06:13:24;;;;;;;1.65;1.65;;;17.40;91.60;;;;;;5053490;28;20183;-77
2022/09/03 06:15:49;;;;;;;1.75;1.65;;;17.50;91.70;;;;;;5055842;28;20183;-75
2022/09/03 06:18:15;;;;;;;1.63;1.52;;;17.40;91.20;;;;;;5056822;28;20186;-76
2022/09/03 06:20:40;;;;;;;1.60;1.60;;;17.40;90.80;;;;;;5058600;28;20237;-76
2022/09/03 06:23:06;;;;;;;1.77;1.67;;;17.50;90.90;;;;;;5057486;28;20254;-76
2022/09/03 06:25:32;;;;;;;1.73;1.73;;;17.50;90.60;;;;;;5063418;28;20179;-75
2022/09/03 06:27:58;;;;;;;2.03;1.92;;;17.60;90.60;;;;;;5052729;28;20594;-76
2022/09/03 06:30:25;;;;;;;2.97;2.40;;;17.70;90.30;;;;;;5054033;28;20206;-76
2022/09/03 06:32:51;;;;;;;2.25;2.15;;;17.70;90.00;;;;;;5060265;28;20180;-76
2022/09/03 06:35:17;;;;;;;2.25;2.10;;;17.80;90.30;;;;;;5053012;28;20176;-74
2022/09/03 06:37:43;;;;;;;2.13;2.03;;;17.90;89.90;;;;;;5054688;28;20234;-74
2022/09/03 06:40:13;;;;;;;2.67;2.47;;;17.90;89.60;;;;;;5056116;28;20664;-76
2022/09/03 06:42:42;;;;;;;2.30;2.20;;;18.00;89.50;;;;;;5053053;28;20216;-74
2022/09/03 06:45:08;;;;;;;2.67;2.47;;;18.00;89.30;;;;;;5050787;28;20746;-75
2022/09/03 06:47:34;;;;;;;3.55;2.70;;;18.10;89.50;;;;;;5050900;28;20188;-74
2022/09/03 06:50:01;;;;;;;2.20;2.10;;;18.20;89.20;;;;;;5048829;28;20187;-75
2022/09/03 06:52:27;;;;;;;2.35;2.25;;;18.30;89.00;;;;;;5054036;28;20195;-77
2022/09/03 06:54:53;;;;;;;2.30;2.20;;;18.30;88.90;;;;;;5057757;28;20233;-74
2022/09/03 06:57:19;;;;;;;2.88;2.10;;;18.40;88.90;;;;;;5056077;28;20231;-74
2022/09/03 06:59:45;;;;;;;3.75;2.22;;;18.60;88.50;;;;;;5055449;28;20701;-75
2022/09/03 07:02:10;;;;;;;2.55;1.70;;;18.60;88.00;;;;;;5054346;28;20202;-75
2022/09/03 07:04:36;;;;;;;2.38;2.28;;;18.50;87.90;;;;;;5053180;28;20678;-75
2022/09/03 07:07:02;;;;;;;1.83;1.80;;;18.60;88.00;;;;;;5055314;28;20179;-75
2022/09/03 07:09:28;;;;;;;2.40;2.30;;;18.70;87.90;;;;;;5054277;28;20361;-76
2022/09/03 07:11:53;;;;;;;2.33;2.22;;;18.80;87.50;;;;;;5056889;28;20183;-77
2022/09/03 07:14:20;;;;;;;2.47;2.38;;;18.80;87.50;;;;;;5050550;28;20265;-77
2022/09/03 07:16:48;;;;;;;2.00;1.90;;;18.90;87.50;;;;;;5054731;28;20179;-76
2022/09/03 07:19:14;;;;;;;1.80;1.80;;;18.70;87.10;;;;;;5055315;28;20263;-76
2022/09/03 07:21:41;;;;;;;2.03;1.92;;;18.70;87.30;;;;;;5050530;28;20266;-76
2022/09/03 07:24:08;;;;;;;2.20;2.20;;;18.60;87.30;;;;;;5052747;28;20179;-76
2022/09/03 07:26:36;;;;;;;2.20;2.08;;;18.70;87.40;;;;;;5056872;28;20186;-75
2022/09/03 07:29:03;;;;;;;2.70;2.50;;;18.80;87.20;;;;;;5054275;28;20180;-75
2022/09/03 07:31:32;;;;;;;2.05;1.95;;;18.80;87.10;;;;;;5046083;28;20857;-76
2022/09/03 07:34:06;;;;;;;2.17;2.08;;;18.90;87.10;;;;;;5047279;28;20184;-75
2022/09/03 07:36:45;;;;;;;2.03;2.03;;;18.80;87.00;;;;;;5051225;28;20240;-76
2022/09/03 07:39:12;;;;;;;3.15;2.17;;;18.90;87.00;;;;;;5049799;28;20236;-75
2022/09/03 07:41:41;;;;;;;2.72;2.63;;;19.10;86.80;;;;;;5053372;28;20187;-75
2022/09/03 07:44:08;;;;;;;2.40;2.25;;;19.20;87.00;;;;;;5051383;28;20207;-75
2022/09/03 07:46:36;;;;;;;2.00;2.00;;;19.40;86.50;;;;;;5054313;28;20263;-75
2022/09/03 07:49:03;;;;;;;1.92;1.83;;;19.50;85.90;;;;;;5053685;28;20372;-76
2022/09/03 07:51:34;;;;;;;2.08;2.05;;;19.50;85.00;;;;;;5052951;28;20183;-77
2022/09/03 07:54:02;;;;;;;2.28;2.28;;;19.40;85.10;;;;;;5054504;28;20683;-76
2022/09/03 07:56:31;;;;;;;2.30;2.22;;;19.40;85.40;;;;;;5050209;28;20179;-76
2022/09/03 07:58:58;;;;;;;2.42;2.33;;;19.40;85.40;;;;;;5054503;28;20187;-76
2022/09/03 08:01:26;;;;;;;2.42;2.33;;;19.60;85.60;;;;;;5050280;28;20188;-76
2022/09/03 08:03:53;;;;;;;2.58;2.47;;;19.70;85.20;;;;;;5051069;28;20925;-77
2022/09/03 08:06:22;;;;;;;2.85;2.60;;;19.90;85.40;;;;;;5053220;28;20183;-77
2022/09/03 08:08:48;;;;;;;2.38;2.28;;;20.00;85.30;;;;;;5050232;28;20685;-76
2022/09/03 08:11:15;;;;;;;2.05;1.95;;;20.20;85.30;;;;;;5052280;28;20299;-76
2022/09/03 08:13:43;;;;;;;1.77;1.67;;;20.40;83.60;;;;;;5054541;28;20554;-76
2022/09/03 08:16:11;;;;;;;2.03;2.03;;;20.60;83.60;;;;;;5050963;28;20186;-76
2022/09/03 08:18:37;;;;;;;2.08;1.98;;;20.90;83.20;;;;;;5052863;28;20191;-77
2022/09/03 08:21:14;;;;;;;1.98;1.98;;;21.10;82.70;;;;;;5053593;28;20179;-77
2022/09/03 08:23:45;;;;;;;1.88;1.88;;;21.30;82.90;;;;;;5052404;28;20708;-77
2022/09/03 08:26:11;;;;;;;1.98;1.98;;;21.50;82.80;;;;;;5054591;28;20196;-77
2022/09/03 08:28:37;;;;;;;2.00;2.00;;;21.70;80.80;;;;;;5055663;28;22472;-76
2022/09/03 08:31:14;;;;;;;2.15;2.05;;;21.80;81.30;;;;;;5054505;28;20270;-76
2022/09/03 08:33:42;;;;;;;1.65;1.65;;;22.00;81.60;;;;;;5052999;28;20186;-76
2022/09/03 08:36:14;;;;;;;2.08;1.98;;;22.10;78.70;;;;;;5055578;28;20187;-76
2022/09/03 08:38:42;;;;;;;2.17;2.15;;;22.20;78.90;;;;;;5054927;28;20201;-76
2022/09/03 08:41:16;;;;;;;1.65;1.50;;;22.30;78.60;;;;;;5051175;28;20187;-76
2022/09/03 08:44:13;;;;;;;1.92;1.92;;;22.30;78.60;;;;;;5055254;28;20214;-76
2022/09/03 08:46:49;;;;;;;1.98;1.98;;;22.30;78.00;;;;;;5051839;28;20179;-76
2022/09/03 08:49:21;;;;;;;2.38;2.30;;;22.30;79.20;;;;;;5051754;28;20186;-76
2022/09/03 08:51:50;;;;;;;1.88;1.85;;;22.40;78.70;;;;;;5049362;28;20180;-76
2022/09/03 08:54:19;;;;;;;2.20;2.10;;;22.40;77.40;;;;;;5057608;28;20183;-76
2022/09/03 08:56:46;;;;;;;2.58;2.50;;;22.40;77.10;;;;;;5049819;28;20184;-76
2022/09/03 08:59:12;;;;;;;2.47;2.38;;;22.40;78.00;;;;;;5052284;28;20179;-76
2022/09/03 09:01:46;;;;;;;2.20;2.20;;;22.50;78.80;;;;;;5052438;28;20676;-76
2022/09/03 09:04:35;;;;;;;2.88;2.63;;;22.60;78.50;;;;;;5052971;28;20189;-76
2022/09/03 09:07:13;;;;;;;2.35;2.20;;;22.60;78.70;;;;;;5051091;28;20247;-77
2022/09/03 09:09:53;;;;;;;2.40;2.30;;;22.70;78.50;;;;;;5050387;28;20183;-77
2022/09/03 09:12:22;;;;;;;2.33;2.33;;;22.80;78.70;;;;;;5055407;28;20198;-77
2022/09/03 09:15:02;;;;;;;2.33;2.33;;;22.90;78.50;;;;;;5053667;28;20179;-76
2022/09/03 09:18:06;;;;;;;2.70;2.50;;;23.00;78.30;;;;;;5051655;28;20189;-76
2022/09/03 09:20:48;;;;;;;2.38;2.30;;;23.10;77.80;;;;;;5051414;28;20184;-77
2022/09/03 09:23:27;;;;;;;2.53;2.42;;;23.10;77.30;;;;;;5054367;28;20211;-76
2022/09/03 09:25:54;;;;;;;2.63;2.53;;;23.30;77.20;;;;;;5049907;28;20621;-75
2022/09/03 09:28:21;;;;;;;2.00;2.00;;;23.50;75.90;;;;;;5051373;28;20645;-75
2022/09/03 09:30:48;;;;;;;2.33;2.13;;;23.60;74.10;;;;;;5052869;28;20191;-75
2022/09/03 09:33:15;;;;;;;2.13;2.13;;;23.70;74.90;;;;;;5053007;28;20190;-75
2022/09/03 09:35:42;;;;;;;2.55;2.55;;;23.60;75.20;;;;;;5056553;28;20178;-76
2022/09/03 09:38:09;;;;;;;2.42;2.35;;;23.50;75.60;;;;;;5055654;28;20240;-75
2022/09/03 09:40:44;;;;;;;2.03;1.80;;;23.40;74.90;;;;;;5049455;28;20191;-75
2022/09/03 09:43:17;;;;;;;2.17;2.08;;;23.30;75.30;;;;;;5051824;28;20692;-75
2022/09/03 09:45:47;;;;;;;1.52;1.52;;;23.40;75.50;;;;;;5055236;28;20179;-76
2022/09/03 09:48:35;;;;;;;1.30;1.30;;;23.50;75.40;;;;;;5054265;28;20604;-76
2022/09/03 09:51:12;;;;;;;1.95;1.95;;;23.60;74.50;;;;;;5054607;28;20221;-76
2022/09/03 09:53:39;;;;;;;2.03;2.03;;;23.70;74.00;;;;;;5053086;28;20690;-76
2022/09/03 09:56:06;;;;;;;2.30;2.30;;;23.90;75.00;;;;;;5053555;28;20966;-76
2022/09/03 09:58:33;;;;;;;2.33;2.33;;;24.10;73.80;;;;;;5048888;28;20180;-76
2022/09/03 10:01:16;;;;;;;2.20;2.20;;;24.30;73.80;;;;;;5053398;28;20901;-75
2022/09/03 10:03:54;;;;;;;2.58;2.47;;;24.40;74.10;;;;;;5052103;28;20243;-75
2022/09/03 10:09:12;;;;;;;2.53;2.42;;;25.30;73.90;;;;;;5055048;28;20296;-76
2022/09/03 10:11:42;;;;;;;2.80;2.70;;;25.90;73.10;;;;;;5056548;28;20188;-76
2022/09/03 10:14:16;;;;;;;2.05;2.05;;;26.50;69.30;;;;;;5055049;28;20188;-76
2022/09/03 10:16:47;;;;;;;2.42;2.42;;;27.10;67.00;;;;;;5056551;28;20179;-77
2022/09/03 10:20:25;;;;;;;2.25;2.17;;;27.70;69.10;;;;;;5057371;28;20179;-76
2022/09/03 10:22:37;;;;;;;1.70;1.67;;;28.50;69.30;;;;;;5058972;28;20264;-76
2022/09/03 10:25:04;;;;;;;2.42;2.42;;;29.40;68.10;;;;;;5059620;28;22195;-76
2022/09/03 10:27:30;;;;;;;2.38;2.28;;;30.20;66.60;;;;;;5055368;28;20179;-76
2022/09/03 10:29:59;;;;;;;2.40;2.40;;;31.00;61.70;;;;;;5054635;28;20179;-76
2022/09/03 10:32:42;;;;;;;1.88;1.88;;;31.90;59.70;;;;;;5051618;28;20187;-76
2022/09/03 10:35:30;;;;;;;2.67;2.58;;;32.20;59.30;;;;;;5053084;28;20242;-76
2022/09/03 10:37:59;;;;;;;2.22;2.22;;;32.30;60.60;;;;;;5052215;28;20805;-76
2022/09/03 10:40:36;;;;;;;2.00;2.00;;;32.50;61.40;;;;;;5057363;28;20825;-76
2022/09/03 10:43:40;;;;;;;2.00;2.00;;;33.00;62.90;;;;;;5056464;28;20783;-76
2022/09/03 10:46:20;;;;;;;1.77;1.75;;;33.70;55.90;;;;;;5057017;28;20174;-76
2022/09/03 10:49:14;;;;;;;2.05;2.05;;;34.10;55.30;;;;;;5052875;28;20183;-76
2022/09/03 10:51:41;;;;;;;2.05;2.05;;;34.30;56.90;;;;;;5045748;28;20217;-76
2022/09/03 10:54:09;;;;;;;2.05;2.05;;;34.60;55.90;;;;;;5059139;28;20178;-76
2022/09/03 10:57:14;;;;;;;1.40;1.40;;;35.00;59.30;;;;;;5050723;28;20656;-76
2022/09/03 11:00:07;;;;;;;1.85;1.85;;;35.30;55.50;;;;;;5055706;28;20183;-77
2022/09/03 11:02:48;;;;;;;1.90;1.90;;;35.60;52.00;;;;;;5056990;28;20213;-76
2022/09/03 11:05:37;;;;;;;1.98;1.98;;;35.70;55.10;;;;;;5054239;28;21093;-76
2022/09/03 11:08:11;;;;;;;2.08;1.98;;;35.90;57.20;;;;;;5056976;28;20179;-76
2022/09/03 11:10:53;;;;;;;1.75;1.75;;;36.30;57.30;;;;;;5052469;28;20187;-76
2022/09/03 11:13:29;;;;;;;1.80;1.80;;;36.80;55.10;;;;;;5060029;28;20245;-76
2022/09/03 11:15:59;;;;;;;1.67;1.63;;;37.00;49.80;;;;;;5053865;28;20285;-76
2022/09/03 11:18:40;;;;;;;2.10;2.10;;;36.90;51.60;;;;;;5053729;28;20201;-76
2022/09/03 11:21:10;;;;;;;1.65;1.65;;;36.70;51.60;;;;;;5052710;28;20175;-76
2022/09/03 11:23:43;;;;;;;2.60;1.60;;;36.40;53.40;;;;;;5053326;28;20605;-77
2022/09/03 11:26:12;;;;;;;1.60;1.58;;;36.40;55.30;;;;;;5056552;28;20178;-76
2022/09/03 11:29:08;;;;;;;1.60;1.60;;;36.50;53.30;;;;;;5054317;28;20182;-77
2022/09/03 11:31:40;;;;;;;1.67;1.67;;;36.60;53.90;;;;;;5051248;28;20179;-77
2022/09/03 11:34:08;;;;;;;1.45;1.45;;;36.80;54.30;;;;;;5052330;28;20183;-76
2022/09/03 11:36:38;;;;;;;1.67;1.67;;;37.20;54.40;;;;;;5049727;28;20187;-76
2022/09/03 11:39:31;;;;;;;2.78;1.92;;;37.70;54.50;;;;;;5053056;28;21471;-76
2022/09/03 11:42:09;;;;;;;1.88;1.88;;;38.10;49.90;;;;;;5054148;28;20182;-76
2022/09/03 11:44:42;;;;;;;1.92;1.92;;;38.40;51.00;;;;;;5058209;28;20225;-76
2022/09/03 11:47:16;;;;;;;2.10;2.10;;;38.20;49.90;;;;;;5049456;28;20183;-76
2022/09/03 11:49:50;;;;;;;1.95;1.95;;;37.80;52.00;;;;;;5051364;28;20205;-76
2022/09/03 11:52:39;;;;;;;2.63;1.83;;;37.80;51.20;;;;;;5052683;28;20185;-76
2022/09/03 11:55:06;;;;;;;1.75;1.75;;;37.80;50.40;;;;;;5051778;28;20194;-76
2022/09/03 11:57:38;;;;;;;1.90;1.90;;;37.80;50.90;;;;;;5054828;28;20182;-75
2022/09/03 12:00:16;;;;;;;1.85;1.85;;;37.90;50.30;;;;;;5055334;28;20182;-76
2022/09/03 12:02:47;;;;;;;2.28;2.28;;;38.10;49.70;;;;;;5053760;28;20682;-76
2022/09/03 12:05:39;;;;;;;1.88;1.88;;;38.40;49.70;;;;;;5054342;28;20174;-77
2022/09/03 12:08:33;;;;;;;2.00;1.70;;;38.70;50.30;;;;;;5054168;28;20277;-76
2022/09/03 12:11:34;;;;;;;1.50;1.50;;;38.90;49.00;;;;;;5056039;28;20696;-77
2022/09/03 12:14:05;;;;;;;1.20;1.20;;;39.00;48.30;;;;;;5049835;28;20179;-77
2022/09/03 12:16:39;;;;;;;2.17;2.08;;;39.10;49.50;;;;;;5055867;28;20201;-76
2022/09/03 12:19:22;;;;;;;1.95;1.95;;;39.30;47.40;;;;;;5051286;28;20660;-76
2022/09/03 12:21:49;;;;;;;1.85;1.75;;;38.80;47.50;;;;;;5048582;28;20676;-76
2022/09/03 12:24:16;;;;;;;2.00;2.00;;;38.20;52.00;;;;;;5048058;28;20187;-76
2022/09/03 12:26:42;;;;;;;1.90;1.90;;;37.80;51.40;;;;;;5071348;28;20174;-75
2022/09/03 12:29:22;;;;;;;2.30;2.20;;;37.60;51.40;;;;;;5059123;28;20259;-75
2022/09/03 12:31:49;;;;;;;2.30;2.30;;;37.80;49.20;;;;;;5053810;28;20178;-76
2022/09/03 12:34:17;;;;;;;2.47;2.40;;;37.80;50.60;;;;;;5049411;28;20939;-76
2022/09/03 12:36:44;;;;;;;2.25;2.25;;;37.80;50.90;;;;;;5054793;28;20242;-76
2022/09/03 12:39:14;;;;;;;2.10;2.05;;;37.60;50.50;;;;;;5052964;28;20189;-76
2022/09/03 12:42:05;;;;;;;1.38;1.38;;;37.70;51.40;;;;;;5055581;28;20194;-76
2022/09/03 12:44:36;;;;;;;1.60;1.60;;;37.80;48.90;;;;;;5055240;28;20281;-76
2022/09/03 12:47:13;;;;;;;1.50;1.50;;;37.60;49.50;;;;;;5055256;28;20261;-76
2022/09/03 12:49:46;;;;;;;1.75;1.75;;;37.30;50.70;;;;;;5055199;28;20182;-75
2022/09/03 12:52:27;;;;;;;1.77;1.77;;;37.40;50.50;;;;;;5050317;28;20193;-76
2022/09/03 12:54:55;;;;;;;1.85;1.85;;;37.60;49.50;;;;;;5053289;28;20203;-76
2022/09/03 12:57:25;;;;;;;1.75;1.70;;;37.40;51.20;;;;;;5054285;28;20183;-76
2022/09/03 12:59:56;;;;;;;1.50;1.50;;;37.30;51.60;;;;;;5050712;28;20179;-76
2022/09/03 13:02:52;;;;;;;1.60;1.60;;;37.30;50.40;;;;;;5051098;28;20232;-75
2022/09/03 13:05:24;;;;;;;1.48;1.48;;;37.40;49.00;;;;;;5052319;28;20203;-75
2022/09/03 13:07:54;;;;;;;1.70;1.70;;;37.50;49.60;;;;;;5058037;28;20186;-76
2022/09/03 13:10:32;;;;;;;1.63;1.63;;;37.80;50.10;;;;;;5050221;28;20662;-76
2022/09/03 13:13:01;;;;;;;1.50;1.50;;;38.10;49.70;;;;;;5052614;28;20182;-76
2022/09/03 13:15:28;;;;;;;1.77;1.77;;;38.30;49.40;;;;;;5053583;28;20796;-76
2022/09/03 13:19:02;;;;;;;1.40;1.40;;;38.50;48.80;;;;;;5051699;28;20671;-76
2022/09/03 13:21:45;;;;;;;1.60;1.60;;;38.50;48.00;;;;;;4953910;28;20829;-76